sensor_id;sensor_type;location;lat;lon;timestamp;pressure;altitude;pressure_sealevel;temperature;humidity
29169;BME280;16219;42.864;23.360;2023-04-09T00:00:40;96066.63;;;7.89;100.00
29169;BME280;16219;42.864;23.360;2023-04-09T00:03:08;96073.94;;;7.92;100.00
29169;BME280;16219;42.864;23.360;2023-04-09T00:05:38;96077.22;;;7.84;100.00
29169;BME280;16219;42.864;23.360;2023-04-09T00:08:05;96073.47;;;7.90;100.00
29169;BME280;16219;42.864;23.360;2023-04-09T00:10:32;96073.59;;;7.99;100.00
29169;BME280;16219;42.864;23.360;2023-04-09T00:12:59;96076.56;;;7.92;100.00
29169;BME280;16219;42.864;23.360;2023-04-09T00:15:26;96081.81;;;7.92;100.00
29169;BME280;16219;42.864;23.360;2023-04-09T00:17:53;96078.63;;;7.95;100.00
29169;BME280;16219;42.864;23.360;2023-04-09T00:20:22;96082.25;;;7.99;100.00
29169;BME280;16219;42.864;23.360;2023-04-09T00:22:49;96083.03;;;7.81;100.00
29169;BME280;16219;42.864;23.360;2023-04-09T00:25:16;96079.72;;;7.94;100.00
29169;BME280;16219;42.864;23.360;2023-04-09T00:27:43;96091.78;;;7.95;100.00
29169;BME280;16219;42.864;23.360;2023-04-09T00:30:10;96087.50;;;7.99;100.00
29169;BME280;16219;42.864;23.360;2023-04-09T00:32:38;96087.91;;;8.07;100.00
29169;BME280;16219;42.864;23.360;2023-04-09T00:35:05;96077.09;;;7.94;100.00
29169;BME280;16219;42.864;23.360;2023-04-09T00:37:39;96083.47;;;7.88;100.00
29169;BME280;16219;42.864;23.360;2023-04-09T00:40:07;96076.56;;;7.92;100.00
29169;BME280;16219;42.864;23.360;2023-04-09T00:42:35;96090.56;;;7.88;100.00
29169;BME280;16219;42.864;23.360;2023-04-09T00:45:03;96073.25;;;7.68;100.00
29169;BME280;16219;42.864;23.360;2023-04-09T00:47:30;96092.13;;;7.89;100.00
29169;BME280;16219;42.864;23.360;2023-04-09T00:49:59;96089.22;;;7.90;100.00
29169;BME280;16219;42.864;23.360;2023-04-09T00:52:27;96088.22;;;7.86;100.00
29169;BME280;16219;42.864;23.360;2023-04-09T00:54:58;96082.13;;;7.91;100.00
29169;BME280;16219;42.864;23.360;2023-04-09T00:57:26;96084.09;;;7.99;100.00
29169;BME280;16219;42.864;23.360;2023-04-09T00:59:54;96083.81;;;8.00;100.00
29169;BME280;16219;42.864;23.360;2023-04-09T01:02:21;96082.03;;;7.96;100.00
29169;BME280;16219;42.864;23.360;2023-04-09T01:04:48;96080.97;;;7.97;100.00
29169;BME280;16219;42.864;23.360;2023-04-09T01:07:22;96081.75;;;7.97;100.00
29169;BME280;16219;42.864;23.360;2023-04-09T01:10:00;96089.16;;;7.95;100.00
29169;BME280;16219;42.864;23.360;2023-04-09T01:12:41;96093.31;;;7.96;100.00
29169;BME280;16219;42.864;23.360;2023-04-09T01:15:14;96084.38;;;7.97;100.00
29169;BME280;16219;42.864;23.360;2023-04-09T01:17:49;96082.47;;;8.03;100.00
29169;BME280;16219;42.864;23.360;2023-04-09T01:20:33;96076.28;;;7.94;100.00
29169;BME280;16219;42.864;23.360;2023-04-09T01:23:13;96082.25;;;7.99;100.00
29169;BME280;16219;42.864;23.360;2023-04-09T01:26:00;96075.41;;;7.98;100.00
29169;BME280;16219;42.864;23.360;2023-04-09T01:28:42;96071.75;;;7.81;100.00
29169;BME280;16219;42.864;23.360;2023-04-09T01:31:13;96077.13;;;7.89;100.00
29169;BME280;16219;42.864;23.360;2023-04-09T01:33:41;96077.91;;;7.90;100.00
29169;BME280;16219;42.864;23.360;2023-04-09T01:36:09;96079.72;;;7.94;100.00
29169;BME280;16219;42.864;23.360;2023-04-09T01:38:40;96077.84;;;7.95;100.00
29169;BME280;16219;42.864;23.360;2023-04-09T01:41:11;96079.28;;;7.87;100.00
29169;BME280;16219;42.864;23.360;2023-04-09T01:43:42;96080.78;;;7.74;100.00
29169;BME280;16219;42.864;23.360;2023-04-09T01:46:10;96079.91;;;7.79;100.00
29169;BME280;16219;42.864;23.360;2023-04-09T01:48:38;96092.22;;;7.65;100.00
29169;BME280;16219;42.864;23.360;2023-04-09T01:51:05;96086.28;;;7.73;100.00
29169;BME280;16219;42.864;23.360;2023-04-09T01:53:32;96085.72;;;7.76;100.00
29169;BME280;16219;42.864;23.360;2023-04-09T01:55:59;96087.28;;;7.77;100.00
29169;BME280;16219;42.864;23.360;2023-04-09T01:58:26;96087.78;;;7.79;100.00
29169;BME280;16219;42.864;23.360;2023-04-09T02:01:00;96092.88;;;7.89;100.00
29169;BME280;16219;42.864;23.360;2023-04-09T02:03:34;96090.25;;;7.89;100.00
29169;BME280;16219;42.864;23.360;2023-04-09T02:06:08;96081.91;;;7.87;100.00
29169;BME280;16219;42.864;23.360;2023-04-09T02:08:43;96068.50;;;7.70;100.00
29169;BME280;16219;42.864;23.360;2023-04-09T02:11:10;96085.25;;;7.74;100.00
29169;BME280;16219;42.864;23.360;2023-04-09T02:13:39;96081.56;;;7.75;100.00
29169;BME280;16219;42.864;23.360;2023-04-09T02:16:10;96083.09;;;7.76;100.00
29169;BME280;16219;42.864;23.360;2023-04-09T02:18:42;96086.25;;;7.78;100.00
29169;BME280;16219;42.864;23.360;2023-04-09T02:21:09;96089.72;;;7.73;100.00
29169;BME280;16219;42.864;23.360;2023-04-09T02:23:38;96083.19;;;7.71;100.00
29169;BME280;16219;42.864;23.360;2023-04-09T02:26:05;96079.47;;;7.72;100.00
29169;BME280;16219;42.864;23.360;2023-04-09T02:28:32;96083.47;;;7.69;100.00
29169;BME280;16219;42.864;23.360;2023-04-09T02:30:59;96082.53;;;7.79;100.00
29169;BME280;16219;42.864;23.360;2023-04-09T02:33:27;96088.00;;;7.83;100.00
29169;BME280;16219;42.864;23.360;2023-04-09T02:35:54;96085.16;;;7.79;100.00
29169;BME280;16219;42.864;23.360;2023-04-09T02:38:21;96084.31;;;7.84;100.00
29169;BME280;16219;42.864;23.360;2023-04-09T02:40:48;96074.22;;;7.72;100.00
29169;BME280;16219;42.864;23.360;2023-04-09T02:43:15;96081.91;;;7.68;100.00
29169;BME280;16219;42.864;23.360;2023-04-09T02:45:42;96088.34;;;7.76;100.00
29169;BME280;16219;42.864;23.360;2023-04-09T02:48:10;96083.25;;;7.66;100.00
29169;BME280;16219;42.864;23.360;2023-04-09T02:50:38;96084.31;;;7.65;100.00
29169;BME280;16219;42.864;23.360;2023-04-09T02:53:05;96084.00;;;7.47;100.00
29169;BME280;16219;42.864;23.360;2023-04-09T02:55:32;96082.69;;;7.69;100.00
29169;BME280;16219;42.864;23.360;2023-04-09T02:57:59;96092.50;;;7.82;100.00
29169;BME280;16219;42.864;23.360;2023-04-09T03:00:26;96089.00;;;7.87;100.00
29169;BME280;16219;42.864;23.360;2023-04-09T03:02:54;96086.84;;;7.89;100.00
29169;BME280;16219;42.864;23.360;2023-04-09T03:05:22;96088.72;;;7.88;100.00
29169;BME280;16219;42.864;23.360;2023-04-09T03:07:52;96083.75;;;7.87;100.00
29169;BME280;16219;42.864;23.360;2023-04-09T03:10:19;96087.22;;;7.82;100.00
29169;BME280;16219;42.864;23.360;2023-04-09T03:12:46;96079.34;;;7.82;100.00
29169;BME280;16219;42.864;23.360;2023-04-09T03:15:13;96078.28;;;7.83;100.00
29169;BME280;16219;42.864;23.360;2023-04-09T03:17:40;96081.13;;;7.87;100.00
29169;BME280;16219;42.864;23.360;2023-04-09T03:20:08;96074.03;;;7.87;100.00
29169;BME280;16219;42.864;23.360;2023-04-09T03:22:38;96074.59;;;7.84;100.00
29169;BME280;16219;42.864;23.360;2023-04-09T03:25:27;96076.91;;;7.86;100.00
29169;BME280;16219;42.864;23.360;2023-04-09T03:27:55;96075.09;;;7.86;100.00
29169;BME280;16219;42.864;23.360;2023-04-09T03:30:37;96077.78;;;7.81;100.00
29169;BME280;16219;42.864;23.360;2023-04-09T03:33:05;96080.91;;;7.83;100.00
29169;BME280;16219;42.864;23.360;2023-04-09T03:35:38;96088.22;;;7.86;100.00
29169;BME280;16219;42.864;23.360;2023-04-09T03:38:04;96074.16;;;7.77;100.00
29169;BME280;16219;42.864;23.360;2023-04-09T03:40:33;96082.63;;;7.74;100.00
29169;BME280;16219;42.864;23.360;2023-04-09T03:43:01;96081.00;;;7.78;100.00
29169;BME280;16219;42.864;23.360;2023-04-09T03:45:30;96079.41;;;7.77;100.00
29169;BME280;16219;42.864;23.360;2023-04-09T03:48:09;96084.25;;;7.70;100.00
29169;BME280;16219;42.864;23.360;2023-04-09T03:50:37;96079.78;;;7.70;100.00
29169;BME280;16219;42.864;23.360;2023-04-09T03:53:07;96083.25;;;7.66;100.00
29169;BME280;16219;42.864;23.360;2023-04-09T03:55:36;96073.09;;;7.59;100.00
29169;BME280;16219;42.864;23.360;2023-04-09T03:58:08;96077.09;;;7.57;100.00
29169;BME280;16219;42.864;23.360;2023-04-09T04:00:36;96092.31;;;7.55;100.00
29169;BME280;16219;42.864;23.360;2023-04-09T04:03:23;96090.56;;;7.50;100.00
29169;BME280;16219;42.864;23.360;2023-04-09T04:06:14;96094.03;;;7.45;100.00
29169;BME280;16219;42.864;23.360;2023-04-09T04:08:59;96095.94;;;7.40;100.00
29169;BME280;16219;42.864;23.360;2023-04-09T04:11:38;96097.97;;;7.24;100.00
29169;BME280;16219;42.864;23.360;2023-04-09T04:14:05;96104.00;;;7.24;100.00
29169;BME280;16219;42.864;23.360;2023-04-09T04:16:32;96105.22;;;7.32;100.00
29169;BME280;16219;42.864;23.360;2023-04-09T04:19:02;96103.53;;;7.41;100.00
29169;BME280;16219;42.864;23.360;2023-04-09T04:21:31;96103.19;;;7.48;100.00
29169;BME280;16219;42.864;23.360;2023-04-09T04:24:01;96104.53;;;7.45;100.00
29169;BME280;16219;42.864;23.360;2023-04-09T04:26:29;96105.44;;;7.55;100.00
29169;BME280;16219;42.864;23.360;2023-04-09T04:28:57;96111.41;;;7.60;100.00
29169;BME280;16219;42.864;23.360;2023-04-09T04:31:44;96110.59;;;7.65;100.00
29169;BME280;16219;42.864;23.360;2023-04-09T04:34:14;96109.09;;;7.78;100.00
29169;BME280;16219;42.864;23.360;2023-04-09T04:36:45;96111.78;;;7.72;100.00
29169;BME280;16219;42.864;23.360;2023-04-09T04:39:12;96105.09;;;7.80;100.00
29169;BME280;16219;42.864;23.360;2023-04-09T04:41:51;96106.09;;;7.84;100.00
29169;BME280;16219;42.864;23.360;2023-04-09T04:44:23;96110.56;;;7.84;100.00
29169;BME280;16219;42.864;23.360;2023-04-09T04:46:57;96105.31;;;7.84;100.00
29169;BME280;16219;42.864;23.360;2023-04-09T04:49:24;96112.06;;;7.90;100.00
29169;BME280;16219;42.864;23.360;2023-04-09T04:51:51;96113.56;;;7.96;100.00
29169;BME280;16219;42.864;23.360;2023-04-09T04:54:19;96113.56;;;7.96;100.00
29169;BME280;16219;42.864;23.360;2023-04-09T04:56:50;96119.59;;;7.96;100.00
29169;BME280;16219;42.864;23.360;2023-04-09T04:59:37;96122.22;;;7.96;100.00
29169;BME280;16219;42.864;23.360;2023-04-09T05:02:06;96121.16;;;7.97;100.00
29169;BME280;16219;42.864;23.360;2023-04-09T05:04:44;96123.00;;;7.97;100.00
29169;BME280;16219;42.864;23.360;2023-04-09T05:07:14;96134.06;;;7.94;100.00
29169;BME280;16219;42.864;23.360;2023-04-09T05:09:48;96128.03;;;7.93;100.00
29169;BME280;16219;42.864;23.360;2023-04-09T05:12:16;96134.88;;;7.94;100.00
29169;BME280;16219;42.864;23.360;2023-04-09T05:14:50;96137.50;;;7.94;100.00
29169;BME280;16219;42.864;23.360;2023-04-09T05:17:18;96133.50;;;7.97;100.00
29169;BME280;16219;42.864;23.360;2023-04-09T05:19:50;96134.78;;;7.99;100.00
29169;BME280;16219;42.864;23.360;2023-04-09T05:22:20;96135.78;;;8.04;100.00
29169;BME280;16219;42.864;23.360;2023-04-09T05:24:47;96135.16;;;8.12;100.00
29169;BME280;16219;42.864;23.360;2023-04-09T05:27:15;96134.94;;;8.08;100.00
29169;BME280;16219;42.864;23.360;2023-04-09T05:29:50;96132.31;;;8.08;100.00
29169;BME280;16219;42.864;23.360;2023-04-09T05:32:18;96129.69;;;8.08;100.00
29169;BME280;16219;42.864;23.360;2023-04-09T05:34:45;96130.38;;;8.14;100.00
29169;BME280;16219;42.864;23.360;2023-04-09T05:37:12;96128.25;;;8.16;100.00
29169;BME280;16219;42.864;23.360;2023-04-09T05:39:40;96120.97;;;8.26;100.00
29169;BME280;16219;42.864;23.360;2023-04-09T05:42:08;96124.28;;;8.37;100.00
29169;BME280;16219;42.864;23.360;2023-04-09T05:45:07;96128.59;;;8.47;100.00
29169;BME280;16219;42.864;23.360;2023-04-09T05:47:37;96126.75;;;8.61;100.00
29169;BME280;16219;42.864;23.360;2023-04-09T05:50:14;96124.84;;;8.67;100.00
29169;BME280;16219;42.864;23.360;2023-04-09T05:52:42;96127.47;;;8.67;100.00
29169;BME280;16219;42.864;23.360;2023-04-09T05:55:11;96125.13;;;8.65;100.00
29169;BME280;16219;42.864;23.360;2023-04-09T05:57:43;96123.34;;;8.61;100.00
29169;BME280;16219;42.864;23.360;2023-04-09T06:00:13;96124.53;;;8.55;100.00
29169;BME280;16219;42.864;23.360;2023-04-09T06:02:43;96123.94;;;8.58;100.00
29169;BME280;16219;42.864;23.360;2023-04-09T06:05:10;96128.25;;;8.67;100.00
29169;BME280;16219;42.864;23.360;2023-04-09T06:07:38;96130.00;;;8.72;100.00
29169;BME280;16219;42.864;23.360;2023-04-09T06:10:07;96131.34;;;8.56;100.00
29169;BME280;16219;42.864;23.360;2023-04-09T06:12:34;96132.63;;;8.58;100.00
29169;BME280;16219;42.864;23.360;2023-04-09T06:15:03;96137.81;;;8.77;100.00
29169;BME280;16219;42.864;23.360;2023-04-09T06:17:33;96130.03;;;8.99;100.00
29169;BME280;16219;42.864;23.360;2023-04-09T06:20:00;96134.34;;;9.23;100.00
29169;BME280;16219;42.864;23.360;2023-04-09T06:22:28;96123.94;;;9.18;100.00
29169;BME280;16219;42.864;23.360;2023-04-09T06:24:56;96125.16;;;9.34;100.00
29169;BME280;16219;42.864;23.360;2023-04-09T06:27:24;96129.84;;;9.37;100.00
29169;BME280;16219;42.864;23.360;2023-04-09T06:29:51;96126.94;;;9.52;100.00
29169;BME280;16219;42.864;23.360;2023-04-09T06:32:18;96131.00;;;9.59;100.00
29169;BME280;16219;42.864;23.360;2023-04-09T06:34:47;96134.50;;;9.68;100.00
29169;BME280;16219;42.864;23.360;2023-04-09T06:37:14;96130.69;;;9.74;100.00
29169;BME280;16219;42.864;23.360;2023-04-09T06:39:41;96135.28;;;9.82;100.00
29169;BME280;16219;42.864;23.360;2023-04-09T06:42:08;96136.81;;;9.83;100.00
29169;BME280;16219;42.864;23.360;2023-04-09T06:44:50;96136.13;;;9.91;100.00
29169;BME280;16219;42.864;23.360;2023-04-09T06:47:17;96131.03;;;9.95;100.00
29169;BME280;16219;42.864;23.360;2023-04-09T06:49:45;96135.78;;;10.07;100.00
29169;BME280;16219;42.864;23.360;2023-04-09T06:52:13;96132.53;;;10.10;100.00
29169;BME280;16219;42.864;23.360;2023-04-09T06:54:41;96131.38;;;10.16;100.00
29169;BME280;16219;42.864;23.360;2023-04-09T06:57:08;96133.88;;;10.21;100.00
29169;BME280;16219;42.864;23.360;2023-04-09T06:59:35;96135.44;;;10.22;100.00
29169;BME280;16219;42.864;23.360;2023-04-09T07:02:02;96135.69;;;10.12;100.00
29169;BME280;16219;42.864;23.360;2023-04-09T07:04:30;96139.09;;;10.12;100.00
29169;BME280;16219;42.864;23.360;2023-04-09T07:06:57;96135.75;;;10.20;100.00
29169;BME280;16219;42.864;23.360;2023-04-09T07:09:26;96136.03;;;10.19;100.00
29169;BME280;16219;42.864;23.360;2023-04-09T07:11:53;96141.34;;;10.05;100.00
29169;BME280;16219;42.864;23.360;2023-04-09T07:14:20;96139.31;;;10.02;100.00
29169;BME280;16219;42.864;23.360;2023-04-09T07:16:47;96136.78;;;9.97;100.00
29169;BME280;16219;42.864;23.360;2023-04-09T07:19:21;96141.94;;;10.02;100.00
29169;BME280;16219;42.864;23.360;2023-04-09T07:21:48;96137.69;;;10.15;100.00
29169;BME280;16219;42.864;23.360;2023-04-09T07:24:15;96132.25;;;10.25;100.00
29169;BME280;16219;42.864;23.360;2023-04-09T07:26:44;96142.31;;;10.45;100.00
29169;BME280;16219;42.864;23.360;2023-04-09T07:29:11;96148.00;;;10.39;100.00
29169;BME280;16219;42.864;23.360;2023-04-09T07:31:39;96147.22;;;10.38;100.00
29169;BME280;16219;42.864;23.360;2023-04-09T07:34:06;96149.56;;;10.40;100.00
29169;BME280;16219;42.864;23.360;2023-04-09T07:36:33;96148.59;;;10.36;100.00
29169;BME280;16219;42.864;23.360;2023-04-09T07:39:01;96151.91;;;10.41;100.00
29169;BME280;16219;42.864;23.360;2023-04-09T07:41:28;96159.22;;;10.44;100.00
29169;BME280;16219;42.864;23.360;2023-04-09T07:43:58;96153.56;;;10.60;100.00
29169;BME280;16219;42.864;23.360;2023-04-09T07:46:25;96156.91;;;10.74;100.00
29169;BME280;16219;42.864;23.360;2023-04-09T07:48:52;96156.13;;;10.96;100.00
29169;BME280;16219;42.864;23.360;2023-04-09T07:51:19;96164.75;;;11.19;100.00
29169;BME280;16219;42.864;23.360;2023-04-09T07:53:47;96171.88;;;11.10;100.00
29169;BME280;16219;42.864;23.360;2023-04-09T07:56:14;96166.59;;;11.10;100.00
29169;BME280;16219;42.864;23.360;2023-04-09T07:58:41;96166.13;;;11.16;100.00
29169;BME280;16219;42.864;23.360;2023-04-09T08:01:10;96169.59;;;11.25;100.00
29169;BME280;16219;42.864;23.360;2023-04-09T08:03:38;96167.47;;;11.36;100.00
29169;BME280;16219;42.864;23.360;2023-04-09T08:06:06;96174.97;;;11.43;100.00
29169;BME280;16219;42.864;23.360;2023-04-09T08:08:33;96176.69;;;11.47;100.00
29169;BME280;16219;42.864;23.360;2023-04-09T08:11:01;96172.00;;;11.44;100.00
29169;BME280;16219;42.864;23.360;2023-04-09T08:13:28;96162.44;;;11.66;100.00
29169;BME280;16219;42.864;23.360;2023-04-09T08:15:55;96169.66;;;11.83;100.00
29169;BME280;16219;42.864;23.360;2023-04-09T08:18:28;96170.44;;;11.92;100.00
29169;BME280;16219;42.864;23.360;2023-04-09T08:20:56;96165.72;;;11.80;100.00
29169;BME280;16219;42.864;23.360;2023-04-09T08:23:23;96169.06;;;11.55;100.00
29169;BME280;16219;42.864;23.360;2023-04-09T08:25:52;96169.22;;;11.49;100.00
29169;BME280;16219;42.864;23.360;2023-04-09T08:28:19;96178.09;;;11.54;100.00
29169;BME280;16219;42.864;23.360;2023-04-09T08:30:47;96175.44;;;11.45;100.00
29169;BME280;16219;42.864;23.360;2023-04-09T08:33:16;96174.56;;;11.67;100.00
29169;BME280;16219;42.864;23.360;2023-04-09T08:35:44;96182.41;;;11.89;100.00
29169;BME280;16219;42.864;23.360;2023-04-09T08:38:11;96176.84;;;11.99;100.00
29169;BME280;16219;42.864;23.360;2023-04-09T08:40:39;96180.09;;;12.05;100.00
29169;BME280;16219;42.864;23.360;2023-04-09T08:43:07;96184.63;;;12.13;100.00
29169;BME280;16219;42.864;23.360;2023-04-09T08:45:34;96181.19;;;12.13;100.00
29169;BME280;16219;42.864;23.360;2023-04-09T08:48:02;96176.34;;;11.97;100.00
29169;BME280;16219;42.864;23.360;2023-04-09T08:50:30;96173.06;;;11.83;100.00
29169;BME280;16219;42.864;23.360;2023-04-09T08:53:01;96163.44;;;11.87;100.00
29169;BME280;16219;42.864;23.360;2023-04-09T08:55:28;96174.19;;;11.99;100.00
29169;BME280;16219;42.864;23.360;2023-04-09T08:57:56;96166.13;;;12.22;100.00
29169;BME280;16219;42.864;23.360;2023-04-09T09:00:23;96159.09;;;12.35;100.00
29169;BME280;16219;42.864;23.360;2023-04-09T09:03:04;96150.69;;;12.59;100.00
29169;BME280;16219;42.864;23.360;2023-04-09T09:05:37;96153.16;;;12.72;100.00
29169;BME280;16219;42.864;23.360;2023-04-09T09:08:07;96145.13;;;13.07;100.00
29169;BME280;16219;42.864;23.360;2023-04-09T09:10:40;96142.19;;;13.47;100.00
29169;BME280;16219;42.864;23.360;2023-04-09T09:13:18;96133.53;;;13.59;100.00
29169;BME280;16219;42.864;23.360;2023-04-09T09:15:47;96127.06;;;13.47;99.66
29169;BME280;16219;42.864;23.360;2023-04-09T09:18:17;96121.56;;;13.53;99.18
29169;BME280;16219;42.864;23.360;2023-04-09T09:20:44;96130.00;;;13.46;90.99
29169;BME280;16219;42.864;23.360;2023-04-09T09:23:13;96128.06;;;13.34;82.76
29169;BME280;16219;42.864;23.360;2023-04-09T09:25:41;96130.28;;;13.15;88.38
29169;BME280;16219;42.864;23.360;2023-04-09T09:28:09;96124.78;;;12.82;90.43
29169;BME280;16219;42.864;23.360;2023-04-09T09:30:38;96120.06;;;12.49;94.93
29169;BME280;16219;42.864;23.360;2023-04-09T09:33:06;96114.88;;;12.52;100.00
29169;BME280;16219;42.864;23.360;2023-04-09T09:35:46;96120.31;;;12.56;100.00
29169;BME280;16219;42.864;23.360;2023-04-09T09:38:16;96114.53;;;12.71;100.00
29169;BME280;16219;42.864;23.360;2023-04-09T09:40:43;96105.78;;;12.88;100.00
29169;BME280;16219;42.864;23.360;2023-04-09T09:43:11;96095.88;;;13.06;100.00
29169;BME280;16219;42.864;23.360;2023-04-09T09:45:39;96106.44;;;13.23;100.00
29169;BME280;16219;42.864;23.360;2023-04-09T09:48:09;96099.69;;;13.35;95.59
29169;BME280;16219;42.864;23.360;2023-04-09T09:50:38;96097.97;;;13.39;89.28
29169;BME280;16219;42.864;23.360;2023-04-09T09:53:09;96092.56;;;13.18;95.73
29169;BME280;16219;42.864;23.360;2023-04-09T09:55:39;96096.75;;;13.28;87.87
29169;BME280;16219;42.864;23.360;2023-04-09T09:58:13;96092.88;;;13.25;87.58
29169;BME280;16219;42.864;23.360;2023-04-09T10:00:43;96092.88;;;13.25;86.17
29169;BME280;16219;42.864;23.360;2023-04-09T10:03:14;96079.63;;;13.25;88.92
29169;BME280;16219;42.864;23.360;2023-04-09T10:05:44;96092.28;;;13.11;87.24
29169;BME280;16219;42.864;23.360;2023-04-09T10:08:12;96085.53;;;13.22;90.97
29169;BME280;16219;42.864;23.360;2023-04-09T10:10:42;96082.75;;;13.27;83.54
29169;BME280;16219;42.864;23.360;2023-04-09T10:13:15;96085.06;;;13.20;81.17
29169;BME280;16219;42.864;23.360;2023-04-09T10:15:47;96074.84;;;13.10;84.73
29169;BME280;16219;42.864;23.360;2023-04-09T10:18:15;96084.63;;;13.27;80.91
29169;BME280;16219;42.864;23.360;2023-04-09T10:20:48;96073.31;;;13.09;78.82
29169;BME280;16219;42.864;23.360;2023-04-09T10:23:23;96078.84;;;13.16;75.22
29169;BME280;16219;42.864;23.360;2023-04-09T10:25:53;96067.81;;;13.14;80.83
29169;BME280;16219;42.864;23.360;2023-04-09T10:28:22;96073.66;;;13.58;83.28
29169;BME280;16219;42.864;23.360;2023-04-09T10:30:49;96073.19;;;13.85;82.87
29169;BME280;16219;42.864;23.360;2023-04-09T10:33:22;96070.75;;;13.92;71.95
29169;BME280;16219;42.864;23.360;2023-04-09T10:35:52;96059.06;;;13.93;71.07
29169;BME280;16219;42.864;23.360;2023-04-09T10:38:32;96063.72;;;13.96;74.90
29169;BME280;16219;42.864;23.360;2023-04-09T10:41:08;96058.03;;;14.07;70.84
29169;BME280;16219;42.864;23.360;2023-04-09T10:43:40;96056.94;;;14.41;64.51
29169;BME280;16219;42.864;23.360;2023-04-09T10:46:24;96043.88;;;14.36;70.99
29169;BME280;16219;42.864;23.360;2023-04-09T10:49:07;96049.06;;;14.32;72.06
29169;BME280;16219;42.864;23.360;2023-04-09T10:51:35;96050.75;;;14.16;73.06
29169;BME280;16219;42.864;23.360;2023-04-09T10:54:04;96048.16;;;14.28;62.68
29169;BME280;16219;42.864;23.360;2023-04-09T10:56:33;96043.50;;;14.25;67.71
29169;BME280;16219;42.864;23.360;2023-04-09T10:59:01;96045.75;;;14.02;61.87
29169;BME280;16219;42.864;23.360;2023-04-09T11:01:28;96045.00;;;14.14;64.18
29169;BME280;16219;42.864;23.360;2023-04-09T11:04:10;96018.28;;;14.19;58.90
29169;BME280;16219;42.864;23.360;2023-04-09T11:06:44;96015.09;;;14.38;59.47
29169;BME280;16219;42.864;23.360;2023-04-09T11:09:12;96030.50;;;14.44;61.79
29169;BME280;16219;42.864;23.360;2023-04-09T11:11:41;96033.13;;;14.32;65.40
29169;BME280;16219;42.864;23.360;2023-04-09T11:14:08;96025.34;;;14.27;74.94
29169;BME280;16219;42.864;23.360;2023-04-09T11:16:35;96027.44;;;14.55;78.58
29169;BME280;16219;42.864;23.360;2023-04-09T11:19:03;96034.91;;;14.86;82.14
29169;BME280;16219;42.864;23.360;2023-04-09T11:21:33;96034.97;;;14.65;61.67
29169;BME280;16219;42.864;23.360;2023-04-09T11:24:03;96034.53;;;14.50;64.07
29169;BME280;16219;42.864;23.360;2023-04-09T11:26:34;96031.16;;;14.41;65.01
29169;BME280;16219;42.864;23.360;2023-04-09T11:29:06;96030.78;;;14.31;66.03
29169;BME280;16219;42.864;23.360;2023-04-09T11:31:34;96031.34;;;14.24;67.04
29169;BME280;16219;42.864;23.360;2023-04-09T11:34:02;96028.50;;;14.08;69.81
29169;BME280;16219;42.864;23.360;2023-04-09T11:36:36;96023.88;;;13.84;67.76
29169;BME280;16219;42.864;23.360;2023-04-09T11:39:04;96020.38;;;13.92;72.59
29169;BME280;16219;42.864;23.360;2023-04-09T11:41:32;96018.81;;;13.91;71.17
29169;BME280;16219;42.864;23.360;2023-04-09T11:44:01;96022.47;;;13.87;70.33
29169;BME280;16219;42.864;23.360;2023-04-09T11:46:31;96020.72;;;13.70;75.75
29169;BME280;16219;42.864;23.360;2023-04-09T11:48:59;96028.47;;;13.75;81.26
29169;BME280;16219;42.864;23.360;2023-04-09T11:51:27;96025.19;;;13.57;85.20
29169;BME280;16219;42.864;23.360;2023-04-09T11:53:56;96023.84;;;13.21;89.69
29169;BME280;16219;42.864;23.360;2023-04-09T11:56:28;96011.19;;;12.97;95.31
29169;BME280;16219;42.864;23.360;2023-04-09T11:58:56;96014.66;;;13.19;88.99
29169;BME280;16219;42.864;23.360;2023-04-09T12:01:24;96020.25;;;13.26;88.17
29169;BME280;16219;42.864;23.360;2023-04-09T12:03:53;96018.13;;;13.11;83.62
29169;BME280;16219;42.864;23.360;2023-04-09T12:06:22;96013.53;;;13.29;88.00
29169;BME280;16219;42.864;23.360;2023-04-09T12:08:51;96012.75;;;13.28;83.58
29169;BME280;16219;42.864;23.360;2023-04-09T12:11:18;96013.53;;;13.20;91.13
29169;BME280;16219;42.864;23.360;2023-04-09T12:13:46;96012.53;;;12.74;90.97
29169;BME280;16219;42.864;23.360;2023-04-09T12:16:13;96011.16;;;12.68;96.52
29169;BME280;16219;42.864;23.360;2023-04-09T12:18:46;96001.19;;;12.65;96.96
29169;BME280;16219;42.864;23.360;2023-04-09T12:21:16;96021.19;;;12.54;100.00
29169;BME280;16219;42.864;23.360;2023-04-09T12:23:44;96021.56;;;12.26;100.00
29169;BME280;16219;42.864;23.360;2023-04-09T12:26:12;96018.78;;;12.14;100.00
29169;BME280;16219;42.864;23.360;2023-04-09T12:28:39;96023.44;;;12.17;100.00
29169;BME280;16219;42.864;23.360;2023-04-09T12:31:08;96029.31;;;12.31;100.00
29169;BME280;16219;42.864;23.360;2023-04-09T12:33:37;96024.81;;;12.32;100.00
29169;BME280;16219;42.864;23.360;2023-04-09T12:36:05;96019.63;;;12.52;100.00
29169;BME280;16219;42.864;23.360;2023-04-09T12:38:34;96011.28;;;12.80;100.00
29169;BME280;16219;42.864;23.360;2023-04-09T12:41:02;96017.84;;;13.04;100.00
29169;BME280;16219;42.864;23.360;2023-04-09T12:43:31;96019.81;;;13.15;95.08
29169;BME280;16219;42.864;23.360;2023-04-09T12:45:58;96015.28;;;13.16;95.54
29169;BME280;16219;42.864;23.360;2023-04-09T12:48:25;96010.44;;;13.27;92.91
29169;BME280;16219;42.864;23.360;2023-04-09T12:50:53;95997.94;;;13.27;89.76
29169;BME280;16219;42.864;23.360;2023-04-09T12:53:20;96012.97;;;13.44;88.10
29169;BME280;16219;42.864;23.360;2023-04-09T12:55:49;96003.00;;;13.41;89.98
29169;BME280;16219;42.864;23.360;2023-04-09T12:58:17;96014.44;;;13.54;88.76
29169;BME280;16219;42.864;23.360;2023-04-09T13:00:45;96004.09;;;13.61;86.58